Time;durP1;ratioP1;P1;durP2;ratioP2;P2;SDS_P1;SDS_P2;PMS_P1;PMS_P2;Temp;Humidity;BMP_temperature;BMP_pressure;BME280_temperature;BME280_humidity;BME280_pressure;Samples;Min_cycle;Max_cycle;Signal;HPM_P1;HPM_P2
2023/06/24 00:01:28;;;;;;;8.85;6.88;;;17.10;99.90;;;;;;5051460;28;20404;-83
2023/06/24 00:03:54;;;;;;;7.78;6.60;;;17.10;99.90;;;;;;5057628;28;20041;-83
2023/06/24 00:06:20;;;;;;;7.63;6.50;;;17.00;99.90;;;;;;5044083;28;20118;-83
2023/06/24 00:08:46;;;;;;;5.88;5.28;;;17.00;99.90;;;;;;5058582;28;20041;-83
2023/06/24 00:11:13;;;;;;;8.60;6.25;;;17.00;99.90;;;;;;5056483;28;20067;-84
2023/06/24 00:13:39;;;;;;;7.45;6.75;;;17.00;99.90;;;;;;5045001;28;20123;-83
2023/06/24 00:16:06;;;;;;;8.25;7.53;;;17.00;99.90;;;;;;5058877;28;20037;-83
2023/06/24 00:18:33;;;;;;;9.23;8.27;;;16.90;99.90;;;;;;5062590;28;20075;-83
2023/06/24 00:20:58;;;;;;;8.77;8.02;;;16.90;99.90;;;;;;5061744;28;20044;-83
2023/06/24 00:23:24;;;;;;;9.73;8.57;;;16.90;99.90;;;;;;5047052;28;20037;-83
2023/06/24 00:25:54;;;;;;;8.70;7.90;;;16.80;99.90;;;;;;5059073;28;20040;-83
2023/06/24 00:28:21;;;;;;;9.63;8.45;;;16.80;99.90;;;;;;5058013;28;20135;-83
2023/06/24 00:30:48;;;;;;;9.75;8.75;;;16.70;99.90;;;;;;5038397;28;20182;-83
2023/06/24 00:33:14;;;;;;;10.77;8.73;;;16.70;99.90;;;;;;5055907;28;20045;-83
2023/06/24 00:35:40;;;;;;;10.98;8.60;;;16.80;99.90;;;;;;5058177;28;20040;-83
2023/06/24 00:38:06;;;;;;;10.00;8.85;;;16.70;99.90;;;;;;5059416;28;20049;-84
2023/06/24 00:40:32;;;;;;;9.75;8.27;;;16.70;99.90;;;;;;5046155;28;20487;-83
2023/06/24 00:42:58;;;;;;;9.05;8.15;;;16.70;99.90;;;;;;5080691;28;20457;-84
2023/06/24 00:45:24;;;;;;;10.52;8.80;;;16.70;99.90;;;;;;5042323;28;20049;-83
2023/06/24 00:47:51;;;;;;;9.68;8.75;;;16.60;99.90;;;;;;5063435;28;20435;-83
2023/06/24 00:50:17;;;;;;;10.63;9.57;;;16.60;99.90;;;;;;5063329;28;20140;-82
2023/06/24 00:52:43;;;;;;;10.23;9.23;;;16.50;99.90;;;;;;5046333;28;20388;-82
2023/06/24 00:55:14;;;;;;;10.70;9.60;;;16.50;99.90;;;;;;5065629;28;20112;-82
2023/06/24 00:57:42;;;;;;;10.80;9.57;;;;;;;;;;5065800;28;20044;-82
2023/06/24 01:00:18;;;;;;;11.48;9.68;;;16.40;99.90;;;;;;5049163;28;20044;-81
2023/06/24 01:02:47;;;;;;;10.30;9.25;;;16.40;99.90;;;;;;5058352;28;20483;-82
2023/06/24 01:05:14;;;;;;;9.48;8.65;;;;;;;;;;5046304;28;20043;-82
2023/06/24 01:07:41;;;;;;;10.98;9.25;;;16.30;99.90;;;;;;5043549;28;20055;-82
2023/06/24 01:10:08;;;;;;;12.95;9.98;;;16.30;99.90;;;;;;5039404;28;20064;-84
2023/06/24 01:12:36;;;;;;;9.90;8.90;;;16.20;99.90;;;;;;5054244;28;20066;-83
2023/06/24 01:15:03;;;;;;;;;;;16.20;99.90;;;;;;5035164;28;20041;-83
2023/06/24 01:17:36;;;;;;;10.02;9.13;;;;;;;;;;5057149;28;19927;-83
2023/06/24 01:20:11;;;;;;;11.10;8.57;;;16.20;99.90;;;;;;5055887;28;20630;-84
2023/06/24 01:23:02;;;;;;;9.25;8.35;;;16.20;99.90;;;;;;5058388;28;20037;-83
2023/06/24 01:25:57;;;;;;;10.02;9.13;;;16.10;99.90;;;;;;5060216;28;20103;-83
2023/06/24 01:28:42;;;;;;;11.95;10.75;;;16.10;99.90;;;;;;5059099;28;20041;-83
2023/06/24 01:31:36;;;;;;;11.27;10.18;;;16.10;99.90;;;;;;5039660;28;20076;-83
2023/06/24 01:34:12;;;;;;;11.15;10.05;;;16.10;99.90;;;;;;5057750;28;20041;-83
2023/06/24 01:36:40;;;;;;;10.70;9.68;;;16.10;99.90;;;;;;5059411;28;20064;-83
2023/06/24 01:39:09;;;;;;;11.15;10.15;;;16.10;99.90;;;;;;5048428;28;20488;-83
2023/06/24 01:41:53;;;;;;;10.77;9.77;;;16.10;99.90;;;;;;5071320;28;20041;-83
2023/06/24 01:44:20;;;;;;;11.70;10.70;;;16.00;99.90;;;;;;5065540;28;20514;-83
2023/06/24 01:46:48;;;;;;;14.45;10.55;;;16.00;99.90;;;;;;5050350;28;20047;-83
2023/06/24 01:49:15;;;;;;;10.05;9.05;;;16.00;99.90;;;;;;5025846;28;20080;-83
2023/06/24 01:51:43;;;;;;;11.63;10.32;;;15.90;99.90;;;;;;5060209;28;20476;-83
2023/06/24 01:54:14;;;;;;;11.40;10.43;;;15.90;99.90;;;;;;5070557;28;20463;-83
2023/06/24 01:56:43;;;;;;;11.40;10.32;;;15.90;99.90;;;;;;5055441;28;20046;-83
2023/06/24 01:59:10;;;;;;;12.63;10.68;;;15.90;99.90;;;;;;5057829;28;20107;-82
2023/06/24 02:01:38;;;;;;;11.57;10.30;;;15.90;99.90;;;;;;5027725;28;20045;-82
2023/06/24 02:04:08;;;;;;;12.75;11.45;;;15.80;99.90;;;;;;5074975;28;20052;-81
2023/06/24 02:06:35;;;;;;;12.65;10.45;;;15.80;99.90;;;;;;5063605;28;20047;-82
2023/06/24 02:09:03;;;;;;;11.50;10.13;;;15.80;99.90;;;;;;5026504;28;20064;-82
2023/06/24 02:11:31;;;;;;;;;;;15.80;99.90;;;;;;5026150;28;20060;-82
2023/06/24 02:13:59;;;;;;;;;;;15.70;99.90;;;;;;5043434;28;19927;-81
2023/06/24 02:16:26;;;;;;;13.68;12.27;;;15.70;99.90;;;;;;5036870;28;19921;-82
2023/06/24 02:18:53;;;;;;;12.10;11.00;;;15.70;99.90;;;;;;5034257;28;20041;-82
2023/06/24 02:21:19;;;;;;;12.30;11.15;;;15.60;99.90;;;;;;5032967;28;20042;-83
2023/06/24 02:23:47;;;;;;;12.70;11.52;;;15.60;99.90;;;;;;5004137;28;20120;-82
2023/06/24 02:26:13;;;;;;;12.32;10.90;;;15.60;99.90;;;;;;5018936;28;20065;-82
2023/06/24 02:28:40;;;;;;;12.88;11.50;;;15.60;99.90;;;;;;5018533;28;20054;-82
2023/06/24 02:31:06;;;;;;;12.55;11.38;;;15.60;99.90;;;;;;5000669;28;20050;-82
2023/06/24 02:33:32;;;;;;;13.10;11.80;;;15.50;99.90;;;;;;5033186;28;20037;-84
2023/06/24 02:35:58;;;;;;;11.98;10.88;;;;;;;;;;5031031;28;20049;-83
2023/06/24 02:38:24;;;;;;;12.20;10.98;;;15.50;99.90;;;;;;5016257;28;20052;-83
2023/06/24 02:40:50;;;;;;;12.93;11.27;;;15.50;99.90;;;;;;5039735;28;20073;-83
2023/06/24 02:43:17;;;;;;;11.77;10.15;;;15.50;99.90;;;;;;5043000;28;20104;-82
2023/06/24 02:45:44;;;;;;;12.60;11.07;;;15.40;99.90;;;;;;5024502;28;20439;-82
2023/06/24 02:48:11;;;;;;;12.43;11.20;;;15.40;99.90;;;;;;5041109;28;20476;-81
2023/06/24 02:50:38;;;;;;;12.07;10.55;;;15.40;99.90;;;;;;5022304;28;20045;-81
2023/06/24 02:53:05;;;;;;;13.43;12.13;;;15.40;99.90;;;;;;5034868;28;20049;-81
2023/06/24 02:55:32;;;;;;;12.98;11.75;;;15.40;99.90;;;;;;5032645;28;20045;-81
2023/06/24 02:57:58;;;;;;;12.98;11.43;;;15.30;99.90;;;;;;5039883;28;20474;-81
2023/06/24 03:00:24;;;;;;;14.35;12.82;;;15.30;99.90;;;;;;5021876;28;20073;-82
2023/06/24 03:02:50;;;;;;;13.27;11.88;;;15.30;99.90;;;;;;5039906;28;20055;-82
2023/06/24 03:05:18;;;;;;;13.80;12.57;;;15.30;99.90;;;;;;5038025;28;20128;-81
2023/06/24 03:07:44;;;;;;;;;;;15.30;99.90;;;;;;5025417;28;20068;-81
2023/06/24 03:10:10;;;;;;;13.15;11.75;;;15.20;99.90;;;;;;5043417;28;19921;-82
2023/06/24 03:12:36;;;;;;;12.38;11.18;;;15.20;99.90;;;;;;5027996;28;20053;-81
2023/06/24 03:15:02;;;;;;;13.70;12.07;;;15.20;99.90;;;;;;5030074;28;20050;-80
2023/06/24 03:17:29;;;;;;;13.98;12.68;;;15.20;99.90;;;;;;5033959;28;20045;-82
2023/06/24 03:19:54;;;;;;;15.13;13.52;;;15.20;99.90;;;;;;5033269;28;20041;-82
2023/06/24 03:22:22;;;;;;;15.57;12.80;;;15.30;99.90;;;;;;5030297;28;20034;-82
2023/06/24 03:24:48;;;;;;;15.52;13.20;;;15.20;99.90;;;;;;5033006;28;20065;-81
2023/06/24 03:27:14;;;;;;;15.95;13.65;;;15.20;99.90;;;;;;5034688;28;20056;-81
2023/06/24 03:29:40;;;;;;;15.75;14.23;;;15.20;99.90;;;;;;5031361;28;20128;-82
2023/06/24 03:32:06;;;;;;;16.77;12.95;;;15.20;99.90;;;;;;5032183;28;20088;-83
2023/06/24 03:34:31;;;;;;;14.75;13.18;;;15.30;99.90;;;;;;5051802;28;20530;-83
2023/06/24 03:36:57;;;;;;;16.45;14.73;;;15.30;99.90;;;;;;5014647;28;20037;-83
2023/06/24 03:39:23;;;;;;;14.98;13.48;;;15.30;99.90;;;;;;5023861;28;20040;-83
2023/06/24 03:41:48;;;;;;;16.02;14.32;;;15.30;99.90;;;;;;5038983;28;20038;-83
2023/06/24 03:44:14;;;;;;;15.15;13.65;;;15.30;99.90;;;;;;5033293;28;20042;-83
2023/06/24 03:46:40;;;;;;;15.25;13.65;;;15.30;99.90;;;;;;5035401;28;20045;-83
2023/06/24 03:49:06;;;;;;;15.07;13.57;;;15.40;99.90;;;;;;5034042;28;20043;-83
2023/06/24 03:51:32;;;;;;;16.00;14.30;;;15.30;99.90;;;;;;5036322;28;20535;-83
2023/06/24 03:53:58;;;;;;;14.80;13.40;;;15.40;99.90;;;;;;5022250;28;20109;-83
2023/06/24 03:56:23;;;;;;;15.25;13.55;;;15.50;99.90;;;;;;5039695;28;20061;-83
2023/06/24 03:58:49;;;;;;;14.07;12.73;;;15.50;99.90;;;;;;5034503;28;20446;-83
2023/06/24 04:01:16;;;;;;;16.25;13.35;;;15.60;99.90;;;;;;5033805;28;20038;-83
2023/06/24 04:03:41;;;;;;;15.55;13.40;;;15.60;99.90;;;;;;5040651;28;20163;-81
2023/06/24 04:06:07;;;;;;;15.00;13.40;;;15.70;99.90;;;;;;5039235;28;20048;-83
2023/06/24 04:08:32;;;;;;;15.93;13.18;;;15.80;99.90;;;;;;5055291;28;20131;-83
2023/06/24 04:11:03;;;;;;;14.00;12.50;;;15.90;99.90;;;;;;5064115;28;20048;-83
2023/06/24 04:13:29;;;;;;;13.45;12.13;;;16.00;99.90;;;;;;5049978;28;20040;-83
2023/06/24 04:15:55;;;;;;;14.13;12.73;;;16.10;99.90;;;;;;5063122;28;20392;-82
2023/06/24 04:18:20;;;;;;;14.73;13.23;;;16.20;99.90;;;;;;5062951;28;20071;-83
2023/06/24 04:20:46;;;;;;;13.23;11.70;;;16.30;99.90;;;;;;5026779;28;20142;-83
2023/06/24 04:23:14;;;;;;;13.48;12.18;;;16.40;99.90;;;;;;5039851;28;20080;-83
2023/06/24 04:25:40;;;;;;;14.45;12.70;;;16.40;99.90;;;;;;5035575;28;20049;-83
2023/06/24 04:28:06;;;;;;;13.77;12.38;;;16.40;99.90;;;;;;5059757;28;20515;-83
2023/06/24 04:30:32;;;;;;;12.13;10.88;;;16.50;99.90;;;;;;5026620;28;20040;-83
2023/06/24 04:32:58;;;;;;;13.90;11.63;;;16.70;99.90;;;;;;5058975;28;20114;-83
2023/06/24 04:35:24;;;;;;;14.88;12.70;;;16.80;99.90;;;;;;5062688;28;20064;-83
2023/06/24 04:37:50;;;;;;;13.63;12.20;;;17.00;99.90;;;;;;5044487;28;20052;-83
2023/06/24 04:40:19;;;;;;;13.02;11.73;;;18.30;99.90;;;;;;5059291;28;20067;-84
2023/06/24 04:42:46;;;;;;;13.70;12.40;;;18.00;99.90;;;;;;5044452;28;20447;-84
2023/06/24 04:45:11;;;;;;;14.68;11.93;;;18.40;99.90;;;;;;5057833;28;20041;-84
2023/06/24 04:47:39;;;;;;;13.45;12.13;;;;;;;;;;5034675;28;20143;-85
2023/06/24 04:50:05;;;;;;;;;;;19.40;99.90;;;;;;5040629;28;20040;-84
2023/06/24 04:52:31;;;;;;;14.25;11.10;;;20.00;99.90;;;;;;5042721;28;19927;-84
2023/06/24 04:54:56;;;;;;;13.82;10.85;;;20.50;99.90;;;;;;5053582;28;20063;-85
2023/06/24 04:57:30;;;;;;;12.95;11.00;;;20.70;99.90;;;;;;5044837;28;20041;-84
2023/06/24 04:59:57;;;;;;;12.68;11.50;;;21.10;99.90;;;;;;5061838;28;20045;-84
2023/06/24 05:02:23;;;;;;;13.27;11.05;;;21.40;99.90;;;;;;5039013;28;20052;-84
2023/06/24 05:04:49;;;;;;;12.35;11.10;;;21.80;99.90;;;;;;5057029;28;20045;-85
2023/06/24 05:07:14;;;;;;;13.00;10.35;;;22.10;99.90;;;;;;5059686;28;20065;-83
2023/06/24 05:09:40;;;;;;;13.52;10.63;;;22.60;99.90;;;;;;5061565;28;20041;-84
2023/06/24 05:12:07;;;;;;;12.75;10.60;;;22.30;99.90;;;;;;5048918;28;20061;-83
2023/06/24 05:14:34;;;;;;;11.10;10.00;;;22.10;99.90;;;;;;5056766;28;20037;-83
2023/06/24 05:17:00;;;;;;;;;;;22.40;99.90;;;;;;5049839;28;20049;-83
2023/06/24 05:19:26;;;;;;;11.90;10.75;;;22.40;99.90;;;;;;5056362;28;19921;-83
2023/06/24 05:21:51;;;;;;;12.63;10.43;;;22.60;99.90;;;;;;5055961;28;20400;-82
2023/06/24 05:24:20;;;;;;;11.40;10.20;;;;;;;;;;5058747;28;20055;-83
2023/06/24 05:26:49;;;;;;;13.18;10.27;;;23.50;99.90;;;;;;5057178;28;20073;-83
2023/06/24 05:29:15;;;;;;;12.00;9.25;;;23.80;99.90;;;;;;5054621;28;20087;-83
2023/06/24 05:31:41;;;;;;;12.07;10.23;;;24.40;99.90;;;;;;5056512;28;20044;-83
2023/06/24 05:34:07;;;;;;;12.57;10.52;;;24.60;99.90;;;;;;5057063;28;20041;-83
2023/06/24 05:36:33;;;;;;;12.35;9.90;;;24.80;99.90;;;;;;5056816;28;20135;-83
2023/06/24 05:38:59;;;;;;;11.20;10.10;;;25.20;99.90;;;;;;5058620;28;20507;-82
2023/06/24 05:41:25;;;;;;;10.40;9.43;;;25.10;99.90;;;;;;5037364;28;20040;-82
2023/06/24 05:44:04;;;;;;;13.55;10.00;;;24.60;99.90;;;;;;5026083;28;20348;-82
2023/06/24 05:46:31;;;;;;;11.30;10.10;;;24.40;99.90;;;;;;5052486;28;20029;-82
2023/06/24 05:48:56;;;;;;;9.82;8.65;;;24.80;99.90;;;;;;5036928;28;20729;-82
2023/06/24 05:51:22;;;;;;;10.85;9.25;;;25.30;99.90;;;;;;5050945;28;20492;-82
2023/06/24 05:53:48;;;;;;;10.68;9.65;;;26.00;99.90;;;;;;5037884;28;20507;-83
2023/06/24 05:56:13;;;;;;;10.43;9.32;;;26.40;99.90;;;;;;5052427;28;20037;-83
2023/06/24 05:58:40;;;;;;;44.97;13.70;;;26.80;99.90;;;;;;5053448;28;20394;-82
2023/06/24 06:01:06;;;;;;;11.67;10.47;;;27.40;99.90;;;;;;5054787;28;20452;-82
2023/06/24 06:03:31;;;;;;;11.77;10.20;;;27.20;99.90;;;;;;5053401;28;20287;-82
2023/06/24 06:05:57;;;;;;;9.77;8.88;;;27.80;99.90;;;;;;5053588;28;20410;-83
2023/06/24 06:08:22;;;;;;;10.60;9.60;;;27.90;99.90;;;;;;5049722;28;20140;-83
2023/06/24 06:10:48;;;;;;;10.00;9.10;;;28.30;99.90;;;;;;5052967;28;20053;-83
2023/06/24 06:13:14;;;;;;;12.32;9.60;;;28.70;99.90;;;;;;5050854;28;20033;-83
2023/06/24 06:15:39;;;;;;;8.90;8.10;;;28.70;99.90;;;;;;5055711;28;20041;-83
2023/06/24 06:18:05;;;;;;;10.07;9.18;;;29.00;99.90;;;;;;5052475;28;20068;-83
2023/06/24 06:20:30;;;;;;;9.50;8.50;;;29.30;99.90;;;;;;5052538;28;20045;-83
2023/06/24 06:22:57;;;;;;;9.13;8.23;;;29.50;99.90;;;;;;5058819;28;20372;-82
2023/06/24 06:25:23;;;;;;;9.68;8.73;;;29.40;99.70;;;;;;5060377;28;20052;-83
2023/06/24 06:27:49;;;;;;;9.43;8.52;;;29.50;99.80;;;;;;5057121;28;20037;-83
2023/06/24 06:30:15;;;;;;;9.20;8.23;;;29.60;99.10;;;;;;5038367;28;20460;-82
2023/06/24 06:32:41;;;;;;;10.18;8.93;;;29.00;98.80;;;;;;5059015;28;20079;-83
2023/06/24 06:35:07;;;;;;;8.82;8.02;;;29.60;99.70;;;;;;5037298;28;20107;-82
2023/06/24 06:37:33;;;;;;;10.20;9.23;;;29.90;99.40;;;;;;5033575;28;20394;-83
2023/06/24 06:39:59;;;;;;;11.75;9.32;;;29.90;98.50;;;;;;5027114;28;20094;-83
2023/06/24 06:42:24;;;;;;;9.60;8.70;;;29.70;98.50;;;;;;5066106;28;20403;-83
2023/06/24 06:44:50;;;;;;;9.52;8.73;;;29.60;98.00;;;;;;5058180;28;20068;-84
2023/06/24 06:47:16;;;;;;;8.52;7.72;;;29.60;98.10;;;;;;5057566;28;20037;-82
2023/06/24 06:49:41;;;;;;;9.18;8.38;;;29.80;98.60;;;;;;5058894;28;20033;-81
2023/06/24 06:52:07;;;;;;;9.68;8.77;;;30.00;98.50;;;;;;5057304;28;20123;-81
2023/06/24 06:54:33;;;;;;;11.10;8.25;;;30.20;98.20;;;;;;5057137;28;20519;-82
2023/06/24 06:57:03;;;;;;;8.60;7.75;;;30.30;97.90;;;;;;5056912;28;20497;-81
2023/06/24 06:59:29;;;;;;;9.35;8.40;;;30.40;96.70;;;;;;5060268;28;20479;-83
2023/06/24 07:01:55;;;;;;;10.53;8.47;;;30.30;97.00;;;;;;5060109;28;20044;-83
2023/06/24 07:04:21;;;;;;;8.38;7.68;;;30.50;97.30;;;;;;5058140;28;20272;-83
2023/06/24 07:06:47;;;;;;;7.87;7.07;;;30.60;96.90;;;;;;5059997;28;20045;-83
2023/06/24 07:09:12;;;;;;;7.32;6.72;;;30.90;97.40;;;;;;5037692;28;20044;-83
2023/06/24 07:11:38;;;;;;;7.43;6.45;;;30.90;97.40;;;;;;5038275;28;20080;-83
2023/06/24 07:14:03;;;;;;;8.17;7.40;;;31.10;96.60;;;;;;5003685;28;20056;-84
2023/06/24 07:16:29;;;;;;;7.60;6.77;;;31.50;96.00;;;;;;5019302;28;20045;-82
2023/06/24 07:18:55;;;;;;;7.57;6.87;;;31.30;96.10;;;;;;5040805;28;20099;-81
2023/06/24 07:21:21;;;;;;;8.68;7.10;;;31.20;95.50;;;;;;5036639;28;20037;-80
2023/06/24 07:23:46;;;;;;;7.82;7.20;;;30.90;95.30;;;;;;5033932;28;20097;-81
2023/06/24 07:26:12;;;;;;;8.10;7.38;;;30.90;94.80;;;;;;5035792;28;20043;-82
2023/06/24 07:28:37;;;;;;;8.00;7.20;;;30.80;95.20;;;;;;5015323;28;20036;-82
2023/06/24 07:31:03;;;;;;;6.43;5.85;;;30.90;95.70;;;;;;5040963;28;20037;-82
2023/06/24 07:33:30;;;;;;;7.55;6.82;;;31.40;95.80;;;;;;5044734;28;20120;-82
2023/06/24 07:35:56;;;;;;;7.07;6.45;;;31.50;96.10;;;;;;5040716;28;20088;-82
2023/06/24 07:38:22;;;;;;;8.17;7.27;;;31.50;95.50;;;;;;5037709;28;20053;-82
2023/06/24 07:40:48;;;;;;;7.28;6.57;;;31.20;95.20;;;;;;5037272;28;20295;-82
2023/06/24 07:43:14;;;;;;;7.82;7.03;;;31.40;95.60;;;;;;5039612;28;20255;-82
2023/06/24 07:45:40;;;;;;;7.80;7.10;;;31.20;94.50;;;;;;5018647;28;20046;-83
2023/06/24 07:48:07;;;;;;;7.60;6.90;;;30.80;95.00;;;;;;5039422;28;20045;-84
2023/06/24 07:50:33;;;;;;;;;;;30.40;94.80;;;;;;5039605;28;20147;-84
2023/06/24 07:52:59;;;;;;;10.45;7.85;;;29.90;95.00;;;;;;5030131;28;20402;-81
2023/06/24 07:55:24;;;;;;;9.00;7.75;;;29.50;95.40;;;;;;5039004;28;20124;-80
2023/06/24 07:57:50;;;;;;;8.30;7.53;;;28.80;95.70;;;;;;5029070;28;20128;-81
2023/06/24 08:00:16;;;;;;;9.88;8.82;;;28.70;96.10;;;;;;5039382;28;20569;-80
2023/06/24 08:02:42;;;;;;;9.10;8.30;;;28.40;96.60;;;;;;5037069;28;20053;-82
2023/06/24 08:05:09;;;;;;;9.88;8.85;;;28.30;96.90;;;;;;5037048;28;20046;-78
2023/06/24 08:07:35;;;;;;;8.95;8.05;;;28.00;97.00;;;;;;5006147;28;20064;-80
2023/06/24 08:10:01;;;;;;;9.13;8.20;;;28.20;97.00;;;;;;5030298;28;21028;-81
2023/06/24 08:12:27;;;;;;;9.80;8.30;;;28.00;97.40;;;;;;5050509;28;20178;-79
2023/06/24 08:14:53;;;;;;;10.00;9.10;;;28.10;97.40;;;;;;5033693;28;20075;-80
2023/06/24 08:17:19;;;;;;;9.65;8.60;;;28.00;97.60;;;;;;5030642;28;20060;-80
2023/06/24 08:19:45;;;;;;;10.00;8.63;;;28.00;98.00;;;;;;5049621;28;20048;-78
2023/06/24 08:22:11;;;;;;;10.35;9.32;;;28.10;98.10;;;;;;5030884;28;20115;-80
2023/06/24 08:24:37;;;;;;;9.35;8.15;;;27.80;97.70;;;;;;5057547;28;20045;-81
2023/06/24 08:27:03;;;;;;;9.02;8.13;;;28.00;98.40;;;;;;5055713;28;20079;-80
2023/06/24 08:29:28;;;;;;;9.57;8.68;;;28.30;98.80;;;;;;5038516;28;20155;-83
2023/06/24 08:31:54;;;;;;;10.15;9.25;;;28.40;98.40;;;;;;5055605;28;20554;-84
2023/06/24 08:34:19;;;;;;;10.52;8.60;;;28.60;97.80;;;;;;5037530;28;20041;-81
2023/06/24 08:36:45;;;;;;;10.77;9.70;;;28.70;97.80;;;;;;5053139;28;20057;-80
2023/06/24 08:39:11;;;;;;;11.50;10.52;;;28.70;97.10;;;;;;5059300;28;20096;-80
2023/06/24 08:41:37;;;;;;;11.18;10.18;;;28.80;97.80;;;;;;5057243;28;20456;-80
2023/06/24 08:44:03;;;;;;;11.23;9.43;;;28.50;96.90;;;;;;5061145;28;20053;-80
2023/06/24 08:46:30;;;;;;;10.43;9.40;;;28.80;97.50;;;;;;5042399;28;20073;-80
2023/06/24 08:49:18;;;;;;;;;;;28.90;97.50;;;;;;5068367;28;20045;-80
2023/06/24 08:51:47;;;;;;;10.82;8.85;;;29.10;97.40;;;;;;5063849;28;19920;-80
2023/06/24 08:54:14;;;;;;;11.30;9.93;;;29.30;97.70;;;;;;5036666;28;20041;-80
2023/06/24 08:56:41;;;;;;;;;;;29.30;97.20;;;;;;5053347;28;20033;-80
2023/06/24 08:59:08;;;;;;;12.52;9.77;;;29.30;97.90;;;;;;5051185;28;19968;-80
2023/06/24 09:01:34;;;;;;;9.93;8.93;;;29.40;97.80;;;;;;5056565;28;20045;-80
2023/06/24 09:04:00;;;;;;;10.17;9.17;;;29.40;97.60;;;;;;5059319;28;20095;-80
2023/06/24 09:06:26;;;;;;;11.23;10.23;;;29.60;97.60;;;;;;5025918;28;20033;-80
2023/06/24 09:08:58;;;;;;;13.48;9.93;;;29.50;97.40;;;;;;5050083;28;20049;-81
2023/06/24 09:11:26;;;;;;;8.30;7.50;;;29.70;97.40;;;;;;5053972;28;20045;-81
2023/06/24 09:13:56;;;;;;;9.57;8.57;;;29.50;97.00;;;;;;5035609;28;20407;-83
2023/06/24 09:16:22;;;;;;;10.70;9.20;;;29.80;97.30;;;;;;5039909;28;20518;-79
2023/06/24 09:18:52;;;;;;;10.27;9.23;;;29.80;96.60;;;;;;5033402;28;20049;-79
2023/06/24 09:21:30;;;;;;;8.38;7.47;;;29.70;96.80;;;;;;5053676;28;20525;-79
2023/06/24 09:23:57;;;;;;;11.55;8.82;;;30.00;96.80;;;;;;5032511;28;20049;-79
2023/06/24 09:26:23;;;;;;;;;;;29.90;96.40;;;;;;5031576;28;20104;-79
2023/06/24 09:28:49;;;;;;;7.78;6.97;;;30.00;96.70;;;;;;5051439;28;19963;-80
2023/06/24 09:31:15;;;;;;;8.55;7.10;;;30.00;96.10;;;;;;5047510;28;20040;-79
2023/06/24 09:33:40;;;;;;;8.18;7.38;;;30.00;96.40;;;;;;5054034;28;20040;-80
2023/06/24 09:36:06;;;;;;;7.93;6.68;;;29.70;94.40;;;;;;5048946;28;20558;-80
2023/06/24 09:38:36;;;;;;;6.07;5.45;;;29.50;95.40;;;;;;5048998;28;20116;-80
2023/06/24 09:41:04;;;;;;;6.93;5.63;;;29.60;95.40;;;;;;5052203;28;20364;-80
2023/06/24 09:43:30;;;;;;;7.47;5.90;;;29.50;95.00;;;;;;5019448;28;20621;-80
2023/06/24 09:45:58;;;;;;;6.63;5.83;;;29.60;95.20;;;;;;5030632;28;20124;-79
2023/06/24 09:48:24;;;;;;;8.05;6.30;;;29.70;95.90;;;;;;5053159;28;20037;-80
2023/06/24 09:50:51;;;;;;;6.80;5.85;;;29.70;95.80;;;;;;5050030;28;20052;-80
2023/06/24 09:53:17;;;;;;;6.47;5.78;;;29.70;95.40;;;;;;5033925;28;20070;-80
2023/06/24 09:55:46;;;;;;;7.13;6.40;;;29.80;95.40;;;;;;5051534;28;20041;-80
2023/06/24 09:58:12;;;;;;;7.93;5.47;;;29.50;94.00;;;;;;5040354;28;20053;-79
2023/06/24 10:00:38;;;;;;;6.50;5.13;;;29.70;95.20;;;;;;5037892;28;20049;-81
2023/06/24 10:03:04;;;;;;;5.57;4.80;;;29.80;95.60;;;;;;5064429;28;20045;-80
2023/06/24 10:05:30;;;;;;;6.38;5.85;;;29.90;95.70;;;;;;5058794;28;20274;-81
2023/06/24 10:07:56;;;;;;;6.43;5.82;;;29.90;95.20;;;;;;5062428;28;20083;-80
2023/06/24 10:10:21;;;;;;;7.15;6.45;;;30.00;94.90;;;;;;5065453;28;20052;-80
2023/06/24 10:12:47;;;;;;;5.40;4.90;;;29.40;93.20;;;;;;5060882;28;20040;-81
2023/06/24 10:15:14;;;;;;;6.35;5.85;;;29.40;94.40;;;;;;5059078;28;20037;-80
2023/06/24 10:17:39;;;;;;;5.18;4.72;;;29.40;94.30;;;;;;5055894;28;20036;-80
2023/06/24 10:20:06;;;;;;;6.47;4.38;;;29.50;94.50;;;;;;5057585;28;20098;-80
2023/06/24 10:22:32;;;;;;;4.72;4.18;;;29.70;94.80;;;;;;5031168;28;20045;-80
2023/06/24 10:25:01;;;;;;;5.43;4.07;;;29.80;93.30;;;;;;5054203;28;21268;-79
2023/06/24 10:27:31;;;;;;;5.75;4.20;;;29.80;93.40;;;;;;5051976;28;20303;-80
2023/06/24 10:30:02;;;;;;;3.85;3.40;;;29.80;93.50;;;;;;5053517;28;20043;-80
2023/06/24 10:32:42;;;;;;;3.67;3.20;;;29.80;92.90;;;;;;5020043;28;20124;-79
2023/06/24 10:35:23;;;;;;;3.30;3.00;;;29.80;92.10;;;;;;5049990;28;20084;-79
2023/06/24 10:37:55;;;;;;;3.90;3.40;;;29.80;92.80;;;;;;5032580;28;20356;-79
2023/06/24 10:40:38;;;;;;;4.82;3.33;;;29.80;92.00;;;;;;5015930;28;20068;-79
2023/06/24 10:43:22;;;;;;;3.55;3.25;;;29.80;92.20;;;;;;5031749;28;20061;-79
2023/06/24 10:45:53;;;;;;;3.95;3.08;;;29.70;91.80;;;;;;5032026;28;20051;-80
2023/06/24 10:48:21;;;;;;;3.20;2.92;;;30.00;92.00;;;;;;5049969;28;20087;-79
2023/06/24 10:50:49;;;;;;;4.95;3.47;;;30.00;92.50;;;;;;5055900;28;20033;-79
2023/06/24 10:53:15;;;;;;;4.80;4.30;;;30.00;91.50;;;;;;5054330;28;20053;-80
2023/06/24 10:55:43;;;;;;;4.05;3.63;;;29.90;91.80;;;;;;5034909;28;20063;-79
2023/06/24 10:58:09;;;;;;;3.75;3.42;;;29.70;90.90;;;;;;5051796;28;20041;-79
2023/06/24 11:00:35;;;;;;;4.50;3.83;;;29.40;91.60;;;;;;5053306;28;20036;-79
2023/06/24 11:03:11;;;;;;;4.20;3.80;;;29.70;92.20;;;;;;5052872;28;20427;-80
2023/06/24 11:05:41;;;;;;;4.15;3.85;;;29.80;91.90;;;;;;5053462;28;20049;-80
2023/06/24 11:08:08;;;;;;;3.90;3.13;;;29.80;91.50;;;;;;5034390;28;21621;-79
2023/06/24 11:10:41;;;;;;;3.38;3.05;;;30.00;92.10;;;;;;5051547;28;20056;-79
2023/06/24 11:13:07;;;;;;;4.80;3.53;;;30.10;91.70;;;;;;5014567;28;20052;-80
2023/06/24 11:15:33;;;;;;;3.95;3.50;;;30.20;91.90;;;;;;5045214;28;20032;-79
2023/06/24 11:18:02;;;;;;;5.13;3.03;;;30.20;91.60;;;;;;5057265;28;20400;-79
2023/06/24 11:20:28;;;;;;;3.25;2.95;;;30.10;90.80;;;;;;5036420;28;20032;-79
2023/06/24 11:22:54;;;;;;;3.55;3.25;;;30.20;91.40;;;;;;5039595;28;20102;-79
2023/06/24 11:25:24;;;;;;;3.33;3.03;;;30.20;91.50;;;;;;5049705;28;20056;-80
2023/06/24 11:27:55;;;;;;;3.65;3.35;;;30.40;92.30;;;;;;5053512;28;20033;-80
2023/06/24 11:30:21;;;;;;;4.13;3.72;;;30.60;92.40;;;;;;5053381;28;20142;-80
2023/06/24 11:32:48;;;;;;;6.10;4.07;;;30.60;92.50;;;;;;5046866;28;20037;-81
2023/06/24 11:35:17;;;;;;;5.25;3.95;;;30.10;91.80;;;;;;5050203;28;20128;-80
2023/06/24 11:37:45;;;;;;;6.53;3.22;;;29.60;91.60;;;;;;5049966;28;20049;-79
2023/06/24 11:40:12;;;;;;;5.43;3.10;;;29.10;91.30;;;;;;5055398;28;20071;-80
2023/06/24 11:42:40;;;;;;;3.78;3.40;;;29.10;90.90;;;;;;5035366;28;20321;-80
2023/06/24 11:45:07;;;;;;;6.03;2.95;;;29.30;90.80;;;;;;5048490;28;20041;-82
2023/06/24 11:47:34;;;;;;;6.30;3.28;;;29.40;91.10;;;;;;5036242;28;20715;-79
2023/06/24 11:50:04;;;;;;;3.30;2.65;;;29.60;91.50;;;;;;5044757;28;20042;-79
2023/06/24 11:52:35;;;;;;;4.45;3.38;;;29.90;91.50;;;;;;5036636;28;20045;-79
2023/06/24 11:55:02;;;;;;;4.40;3.10;;;29.80;91.00;;;;;;5003672;28;20069;-80
2023/06/24 11:57:48;;;;;;;3.17;2.97;;;29.90;91.20;;;;;;5034409;28;20091;-79
2023/06/24 12:00:14;;;;;;;3.28;3.03;;;30.10;91.00;;;;;;5059039;28;20419;-79
2023/06/24 12:02:40;;;;;;;5.10;3.05;;;30.30;90.80;;;;;;5069407;28;20037;-80
2023/06/24 12:05:06;;;;;;;3.27;3.07;;;30.30;91.20;;;;;;5061335;28;20060;-79
2023/06/24 12:07:32;;;;;;;3.58;3.28;;;30.40;91.70;;;;;;5062335;28;20057;-79
2023/06/24 12:09:57;;;;;;;4.53;3.13;;;30.40;90.40;;;;;;5066936;28;20041;-79
2023/06/24 12:12:23;;;;;;;3.80;3.40;;;30.40;91.00;;;;;;5061148;28;20087;-79
2023/06/24 12:14:48;;;;;;;4.18;3.78;;;30.60;90.30;;;;;;5063455;28;20120;-79
2023/06/24 12:17:14;;;;;;;3.50;3.20;;;30.20;90.00;;;;;;5047950;28;20108;-80
2023/06/24 12:19:40;;;;;;;3.67;3.38;;;30.60;91.70;;;;;;5041570;28;20507;-79
2023/06/24 12:22:05;;;;;;;4.07;3.75;;;30.60;90.60;;;;;;5059825;28;20041;-79
2023/06/24 12:24:31;;;;;;;5.80;3.45;;;30.10;90.10;;;;;;5061482;28;20053;-79
2023/06/24 12:26:57;;;;;;;4.05;3.65;;;30.30;91.10;;;;;;5052016;28;20037;-79
2023/06/24 12:29:23;;;;;;;3.50;3.20;;;30.80;91.50;;;;;;5050042;28;20072;-79
2023/06/24 12:31:48;;;;;;;7.00;3.67;;;30.50;91.60;;;;;;5068613;28;20037;-79
2023/06/24 12:34:14;;;;;;;3.92;2.97;;;30.10;91.00;;;;;;5061541;28;20110;-79
2023/06/24 12:36:39;;;;;;;5.60;3.40;;;30.10;91.40;;;;;;5064036;28;20040;-80
2023/06/24 12:39:05;;;;;;;3.92;3.53;;;30.40;91.00;;;;;;5064352;28;20450;-80
2023/06/24 12:41:31;;;;;;;3.50;3.20;;;30.60;91.00;;;;;;5063549;28;20041;-80
2023/06/24 12:43:57;;;;;;;4.25;3.95;;;31.00;91.90;;;;;;5062555;28;20049;-79